Time;durP1;ratioP1;P1;durP2;ratioP2;P2;SDS_P1;SDS_P2;PMS_P1;PMS_P2;Temp;Humidity;BMP_temperature;BMP_pressure;BME280_temperature;BME280_humidity;BME280_pressure;Samples;Min_cycle;Max_cycle;Signal;HPM_P1;HPM_P2
2023/12/16 00:01:47;;;;;;;9.15;2.20;;;6.80;99.90;;;;;;4914569;29;20055;-78
2023/12/16 00:04:13;;;;;;;23.55;2.65;;;6.90;99.90;;;;;;4913932;29;20048;-80
2023/12/16 00:06:38;;;;;;;9.52;2.22;;;6.80;99.90;;;;;;4913868;29;20048;-77
2023/12/16 00:09:04;;;;;;;15.73;2.25;;;6.90;99.90;;;;;;4912744;29;20048;-81
2023/12/16 00:11:30;;;;;;;10.75;2.03;;;6.90;99.90;;;;;;4914286;29;20052;-77
2023/12/16 00:13:56;;;;;;;9.25;1.95;;;6.90;99.90;;;;;;4915427;29;20050;-79
2023/12/16 00:16:24;;;;;;;10.77;2.20;;;6.90;99.90;;;;;;4913463;29;20388;-77
2023/12/16 00:18:49;;;;;;;11.43;2.03;;;6.90;99.90;;;;;;4910302;29;20507;-80
2023/12/16 00:21:15;;;;;;;9.80;2.22;;;6.80;99.90;;;;;;4915092;29;20048;-85
2023/12/16 00:23:41;;;;;;;12.32;2.20;;;6.80;99.90;;;;;;4914987;29;20460;-76
2023/12/16 00:26:06;;;;;;;6.65;2.00;;;6.80;99.90;;;;;;4914304;29;20087;-78
2023/12/16 00:28:32;;;;;;;9.00;2.20;;;7.30;99.90;;;;;;4913381;29;20131;-78
2023/12/16 00:30:57;;;;;;;10.60;2.00;;;6.80;99.90;;;;;;4913981;29;20496;-78
2023/12/16 00:33:23;;;;;;;13.35;2.35;;;6.80;99.90;;;;;;4913684;29;20104;-77
2023/12/16 00:35:49;;;;;;;11.63;2.30;;;7.00;99.90;;;;;;4914471;29;20055;-79
2023/12/16 00:38:14;;;;;;;9.48;2.05;;;6.80;99.90;;;;;;4913960;29;20044;-84
2023/12/16 00:40:40;;;;;;;9.32;2.28;;;6.70;99.90;;;;;;4913666;29;20547;-78
2023/12/16 00:43:06;;;;;;;12.07;2.72;;;6.70;99.90;;;;;;4913905;29;20040;-81
2023/12/16 00:45:31;;;;;;;12.43;2.50;;;6.60;99.90;;;;;;4909635;29;20037;-82
2023/12/16 00:47:57;;;;;;;8.85;2.05;;;6.60;99.90;;;;;;4906797;29;20052;-90
2023/12/16 00:50:22;;;;;;;8.23;1.80;;;6.90;99.90;;;;;;4914647;29;20044;-82
2023/12/16 00:52:48;;;;;;;14.45;2.35;;;6.50;99.90;;;;;;4913505;29;20044;-88
2023/12/16 00:55:14;;;;;;;15.93;3.05;;;6.50;99.90;;;;;;4914667;29;20052;-77
2023/12/16 00:57:40;;;;;;;12.38;2.10;;;6.50;99.90;;;;;;4899519;29;20154;-78
2023/12/16 01:00:07;;;;;;;13.23;2.20;;;6.40;99.90;;;;;;4914068;29;20055;-80
2023/12/16 01:02:32;;;;;;;9.65;1.90;;;6.40;99.90;;;;;;4913398;29;20044;-79
2023/12/16 01:04:58;;;;;;;8.27;2.03;;;6.40;99.90;;;;;;4914316;29;20050;-80
2023/12/16 01:07:24;;;;;;;10.15;1.83;;;6.30;99.90;;;;;;4910694;29;20079;-78
2023/12/16 01:09:52;;;;;;;14.80;2.40;;;6.30;99.90;;;;;;4914775;29;20152;-77
2023/12/16 01:12:18;;;;;;;11.45;2.03;;;6.20;99.90;;;;;;4914770;29;20048;-86
2023/12/16 01:14:44;;;;;;;9.98;1.95;;;6.20;99.90;;;;;;4913315;29;20048;-78
2023/12/16 01:17:10;;;;;;;8.15;2.15;;;6.20;99.90;;;;;;4913313;29;20411;-76
2023/12/16 01:19:35;;;;;;;14.55;2.22;;;6.20;99.90;;;;;;4907383;29;20048;-81
2023/12/16 01:22:01;;;;;;;7.07;1.83;;;6.40;99.90;;;;;;4912685;29;20067;-80
2023/12/16 01:24:27;;;;;;;9.10;1.65;;;6.20;99.90;;;;;;4914256;29;20066;-87
2023/12/16 01:26:53;;;;;;;10.88;1.80;;;6.20;99.90;;;;;;4914681;29;20048;-84
2023/12/16 01:29:18;;;;;;;11.05;1.70;;;6.20;99.90;;;;;;4909986;29;20047;-80
2023/12/16 01:31:44;;;;;;;8.13;1.77;;;6.20;99.90;;;;;;4913342;29;20119;-86
2023/12/16 01:34:10;;;;;;;10.40;1.70;;;6.20;99.90;;;;;;4914179;29;20048;-78
2023/12/16 01:36:36;;;;;;;10.45;2.42;;;6.10;99.90;;;;;;4912803;29;20433;-83
2023/12/16 01:39:03;;;;;;;10.10;1.88;;;6.20;99.90;;;;;;4913114;29;20044;-76
2023/12/16 01:41:28;;;;;;;10.63;1.42;;;6.10;99.90;;;;;;4914694;29;20056;-86
2023/12/16 01:43:54;;;;;;;11.93;2.25;;;6.10;99.90;;;;;;4913368;29;20110;-82
2023/12/16 01:46:21;;;;;;;12.98;2.15;;;6.00;99.90;;;;;;4913081;29;20066;-83
2023/12/16 01:48:47;;;;;;;11.57;2.13;;;6.00;99.90;;;;;;4914027;29;20123;-90
2023/12/16 01:51:14;;;;;;;7.07;1.58;;;6.00;99.90;;;;;;4911599;29;20048;-89
2023/12/16 01:53:41;;;;;;;16.25;1.92;;;6.00;99.90;;;;;;4912484;29;20052;-77
2023/12/16 01:56:07;;;;;;;10.88;2.25;;;6.00;99.90;;;;;;4914135;29;20123;-77
2023/12/16 01:58:35;;;;;;;12.30;2.00;;;6.00;99.90;;;;;;4912458;29;20107;-85
2023/12/16 02:01:01;;;;;;;9.60;2.00;;;5.90;99.90;;;;;;4904438;29;20540;-80
2023/12/16 02:03:28;;;;;;;12.32;2.00;;;5.90;99.90;;;;;;4913988;29;20048;-85
2023/12/16 02:05:53;;;;;;;7.72;1.92;;;5.90;99.90;;;;;;4913662;29;20055;-83
2023/12/16 02:08:19;;;;;;;12.60;2.45;;;6.00;99.90;;;;;;4913443;29;20048;-88
2023/12/16 02:10:44;;;;;;;12.75;2.10;;;5.90;99.90;;;;;;4892947;29;20445;-83
2023/12/16 02:13:10;;;;;;;12.32;1.88;;;6.30;99.90;;;;;;4909986;29;20403;-77
2023/12/16 02:15:36;;;;;;;9.23;1.60;;;5.80;99.90;;;;;;4915557;29;20040;-80
2023/12/16 02:18:01;;;;;;;18.17;2.33;;;5.80;99.90;;;;;;4914135;29;20051;-83
2023/12/16 02:20:27;;;;;;;13.23;2.03;;;5.80;99.90;;;;;;4905161;29;20139;-77
2023/12/16 02:22:54;;;;;;;13.98;2.53;;;5.80;99.90;;;;;;4904478;29;20052;-80
2023/12/16 02:25:20;;;;;;;10.38;2.50;;;5.80;99.90;;;;;;4912623;29;20055;-77
2023/12/16 02:27:46;;;;;;;11.88;2.40;;;5.80;99.90;;;;;;4916115;29;20040;-79
2023/12/16 02:30:12;;;;;;;16.77;2.63;;;5.70;99.90;;;;;;4917139;29;20488;-78
2023/12/16 02:32:38;;;;;;;11.80;2.03;;;5.80;99.90;;;;;;4917162;29;20044;-77
2023/12/16 02:35:04;;;;;;;11.90;2.33;;;5.70;99.90;;;;;;4915746;29;20396;-76
2023/12/16 02:37:30;;;;;;;12.60;2.58;;;5.70;99.90;;;;;;4916160;29;20044;-76
2023/12/16 02:39:56;;;;;;;14.07;2.45;;;5.70;99.90;;;;;;4915470;29;20058;-80
2023/12/16 02:42:22;;;;;;;12.45;2.30;;;5.70;99.90;;;;;;4917192;29;20104;-84
2023/12/16 02:44:47;;;;;;;12.50;2.05;;;5.60;99.90;;;;;;4917130;29;20056;-81
2023/12/16 02:47:13;;;;;;;13.98;2.70;;;5.60;99.90;;;;;;4909968;29;20079;-83
2023/12/16 02:49:39;;;;;;;10.55;2.30;;;6.40;99.90;;;;;;4906547;29;20396;-83
2023/12/16 02:52:05;;;;;;;12.55;2.25;;;5.60;99.90;;;;;;4916821;29;20044;-82
2023/12/16 02:54:31;;;;;;;16.58;2.80;;;5.70;99.90;;;;;;4912349;29;20080;-76
2023/12/16 02:56:56;;;;;;;11.23;2.45;;;5.60;99.90;;;;;;4915156;29;20510;-82
2023/12/16 02:59:22;;;;;;;13.02;2.90;;;5.60;99.90;;;;;;4900098;29;20056;-82
2023/12/16 03:01:48;;;;;;;14.32;2.40;;;5.60;99.90;;;;;;4915329;29;20123;-79
2023/12/16 03:04:13;;;;;;;11.68;2.53;;;5.60;99.90;;;;;;4899674;29;20048;-77
2023/12/16 03:06:43;;;;;;;13.57;2.47;;;5.60;99.90;;;;;;4915731;29;20506;-77
2023/12/16 03:09:09;;;;;;;16.38;3.08;;;5.60;99.90;;;;;;4916414;29;20048;-76
2023/12/16 03:11:34;;;;;;;19.15;2.45;;;5.60;99.90;;;;;;4915194;29;20040;-78
2023/12/16 03:14:00;;;;;;;22.65;2.38;;;5.60;99.90;;;;;;4916615;29;20064;-80
2023/12/16 03:16:26;;;;;;;10.90;2.28;;;5.60;99.90;;;;;;4910783;29;20479;-86
2023/12/16 03:18:51;;;;;;;21.65;2.83;;;6.00;99.90;;;;;;4900097;29;20064;-82
2023/12/16 03:21:17;;;;;;;10.00;2.35;;;5.50;99.90;;;;;;4916433;29;20134;-85
2023/12/16 03:23:42;;;;;;;15.00;2.25;;;5.50;99.90;;;;;;4915435;29;20052;-87
2023/12/16 03:26:08;;;;;;;15.63;2.38;;;6.00;99.90;;;;;;4915577;29;20085;-89
2023/12/16 03:28:34;;;;;;;10.98;2.63;;;5.50;99.90;;;;;;4916007;29;20496;-84
2023/12/16 03:30:59;;;;;;;17.13;2.80;;;5.50;99.90;;;;;;4916018;29;20344;-86
2023/12/16 03:33:25;;;;;;;16.67;2.60;;;5.50;99.90;;;;;;4914034;29;20055;-82
2023/12/16 03:35:51;;;;;;;15.25;2.05;;;5.90;99.90;;;;;;4899356;29;20050;-92
2023/12/16 03:38:17;;;;;;;12.63;2.65;;;5.40;99.90;;;;;;4916262;29;20059;-92
2023/12/16 03:40:43;;;;;;;12.55;2.20;;;5.40;99.90;;;;;;4914833;29;20087;-80
2023/12/16 03:43:08;;;;;;;11.85;2.83;;;5.40;99.90;;;;;;4914536;29;20048;-78
2023/12/16 03:45:34;;;;;;;15.60;2.50;;;5.40;99.90;;;;;;4911673;29;20069;-82
2023/12/16 03:48:00;;;;;;;15.70;2.10;;;5.50;99.90;;;;;;4915945;29;20048;-81
2023/12/16 03:50:25;;;;;;;16.75;2.45;;;5.30;99.90;;;;;;4914542;29;20083;-77
2023/12/16 03:52:51;;;;;;;18.17;2.60;;;5.50;99.90;;;;;;4898858;29;20044;-87
2023/12/16 03:55:16;;;;;;;14.00;2.45;;;5.40;99.90;;;;;;4909140;29;20056;-78
2023/12/16 03:57:42;;;;;;;12.82;2.80;;;5.30;99.90;;;;;;4913218;29;20519;-77
2023/12/16 04:00:08;;;;;;;15.45;2.50;;;5.30;99.90;;;;;;4914867;29;20047;-78
2023/12/16 04:02:34;;;;;;;19.92;2.50;;;5.30;99.90;;;;;;4910483;29;20092;-84
2023/12/16 04:05:00;;;;;;;16.30;2.50;;;5.30;99.90;;;;;;4914359;29;20072;-83
2023/12/16 04:07:25;;;;;;;18.83;2.90;;;5.30;99.90;;;;;;4914427;29;20064;-78
2023/12/16 04:09:51;;;;;;;12.32;2.30;;;5.60;99.90;;;;;;4913182;29;20071;-77
2023/12/16 04:12:17;;;;;;;14.07;2.60;;;5.30;99.90;;;;;;4911722;29;20056;-94
2023/12/16 04:14:43;;;;;;;13.02;2.88;;;6.10;99.90;;;;;;4907152;29;20100;-90
2023/12/16 04:17:08;;;;;;;19.05;2.97;;;5.30;99.90;;;;;;4898104;29;20477;-80
2023/12/16 04:19:34;;;;;;;16.92;2.60;;;5.70;99.90;;;;;;4896822;29;20868;-86
2023/12/16 04:22:00;;;;;;;18.60;2.90;;;5.30;99.90;;;;;;4892273;29;20124;-90
2023/12/16 04:24:25;;;;;;;23.40;3.00;;;5.30;99.90;;;;;;4899448;29;20193;-79
2023/12/16 04:26:51;;;;;;;18.00;3.13;;;5.30;99.90;;;;;;4908055;29;20474;-76
2023/12/16 04:29:16;;;;;;;13.35;3.47;;;5.60;99.90;;;;;;4910342;29;20219;-77
2023/12/16 04:31:42;;;;;;;17.17;3.03;;;5.30;99.90;;;;;;4915109;29;20413;-79
2023/12/16 04:34:08;;;;;;;12.63;2.90;;;5.30;99.90;;;;;;4912700;29;20483;-82
2023/12/16 04:36:34;;;;;;;15.80;3.05;;;5.40;99.90;;;;;;4911969;29;20028;-77
2023/12/16 04:39:07;;;;;;;20.00;2.53;;;5.40;99.90;;;;;;4914686;29;20056;-84
2023/12/16 04:41:33;;;;;;;18.85;2.85;;;5.40;99.90;;;;;;4903979;29;20063;-85
2023/12/16 04:43:59;;;;;;;19.90;3.25;;;5.40;99.90;;;;;;4904192;29;20055;-87
2023/12/16 04:46:25;;;;;;;17.42;2.60;;;5.30;99.90;;;;;;4911984;29;20115;-78
2023/12/16 04:48:51;;;;;;;23.77;3.40;;;5.30;99.90;;;;;;4899144;29;20488;-79
2023/12/16 04:51:17;;;;;;;19.75;3.45;;;5.30;99.90;;;;;;4903121;29;20040;-85
2023/12/16 04:53:42;;;;;;;20.77;3.05;;;5.40;99.90;;;;;;4911847;29;20063;-78
2023/12/16 04:56:08;;;;;;;20.90;3.50;;;5.90;99.90;;;;;;4910604;29;20487;-76
2023/12/16 04:58:34;;;;;;;25.85;3.78;;;5.30;99.90;;;;;;4903740;29;20457;-84
2023/12/16 05:01:00;;;;;;;22.15;3.28;;;5.40;99.90;;;;;;4913048;29;20055;-81
2023/12/16 05:03:25;;;;;;;16.45;3.20;;;5.30;99.90;;;;;;4903931;29;20165;-80
2023/12/16 05:05:51;;;;;;;21.52;2.95;;;5.30;99.90;;;;;;4906992;29;20092;-78
2023/12/16 05:08:19;;;;;;;12.80;2.90;;;5.40;99.90;;;;;;4901835;29;20104;-83
2023/12/16 05:10:47;;;;;;;25.48;3.88;;;5.40;99.90;;;;;;4910851;29;20056;-78
2023/12/16 05:13:14;;;;;;;21.83;3.65;;;5.40;99.90;;;;;;4912353;29;20055;-77
2023/12/16 05:15:41;;;;;;;20.27;3.75;;;5.40;99.90;;;;;;4900644;29;20055;-82
2023/12/16 05:18:07;;;;;;;27.80;3.83;;;5.50;99.90;;;;;;4913304;29;20055;-81
2023/12/16 05:20:33;;;;;;;15.13;3.25;;;5.40;99.90;;;;;;4914217;29;20044;-85
2023/12/16 05:22:59;;;;;;;21.15;4.32;;;5.50;99.90;;;;;;4911417;29;20094;-86
2023/12/16 05:25:29;;;;;;;20.70;3.88;;;5.50;99.90;;;;;;4912439;29;20100;-81
2023/12/16 05:27:55;;;;;;;22.70;3.35;;;5.60;99.90;;;;;;4910461;29;20488;-77
2023/12/16 05:30:21;;;;;;;16.98;3.67;;;5.60;99.90;;;;;;4914206;29;20052;-76
2023/12/16 05:32:46;;;;;;;25.67;3.92;;;5.60;99.90;;;;;;4912241;29;20156;-77
2023/12/16 05:35:12;;;;;;;22.10;4.32;;;5.70;99.90;;;;;;4897282;29;20049;-80
2023/12/16 05:37:37;;;;;;;23.88;4.10;;;5.60;99.90;;;;;;4898147;29;20139;-83
2023/12/16 05:40:03;;;;;;;20.40;4.07;;;5.60;99.90;;;;;;4903213;29;20409;-83
2023/12/16 05:42:29;;;;;;;20.33;4.85;;;5.70;99.90;;;;;;4911759;29;20047;-78
2023/12/16 05:44:55;;;;;;;21.08;4.15;;;5.70;99.90;;;;;;4914165;29;20048;-87
2023/12/16 05:47:21;;;;;;;30.70;4.28;;;5.70;99.90;;;;;;4904905;29;20040;-76
2023/12/16 05:49:46;;;;;;;23.38;4.65;;;5.70;99.90;;;;;;4913990;29;20139;-81
2023/12/16 05:52:12;;;;;;;22.10;4.35;;;5.70;99.90;;;;;;4917732;29;20048;-81
2023/12/16 05:54:38;;;;;;;24.38;4.55;;;5.80;99.90;;;;;;4896826;29;20107;-84
2023/12/16 05:57:04;;;;;;;23.77;4.30;;;5.80;99.90;;;;;;4915033;29;20051;-76
2023/12/16 05:59:29;;;;;;;26.27;5.22;;;5.80;99.90;;;;;;4905581;29;20044;-87
2023/12/16 06:01:55;;;;;;;27.23;5.07;;;5.90;99.90;;;;;;4916971;29;20100;-84
2023/12/16 06:04:21;;;;;;;26.55;4.65;;;6.80;99.90;;;;;;4917036;29;20059;-77
2023/12/16 06:06:47;;;;;;;40.70;6.15;;;6.00;99.90;;;;;;4911741;29;20047;-91
2023/12/16 06:09:13;;;;;;;26.25;5.65;;;6.00;99.90;;;;;;4916238;29;20048;-87
2023/12/16 06:11:39;;;;;;;25.83;5.00;;;6.00;99.90;;;;;;4916252;29;20094;-81
2023/12/16 06:14:04;;;;;;;24.23;5.20;;;6.10;99.90;;;;;;4916489;29;20075;-87
2023/12/16 06:16:30;;;;;;;35.25;5.85;;;6.10;99.90;;;;;;4917618;29;20092;-79
2023/12/16 06:18:56;;;;;;;32.95;6.38;;;6.20;99.90;;;;;;4910491;29;20112;-78
2023/12/16 06:21:21;;;;;;;38.15;6.90;;;6.20;99.90;;;;;;4915742;29;20051;-77
2023/12/16 06:23:47;;;;;;;35.55;6.30;;;6.30;99.90;;;;;;4906935;29;20089;-84
2023/12/16 06:26:13;;;;;;;37.55;6.70;;;6.40;99.90;;;;;;4917023;29;20115;-77
2023/12/16 06:28:38;;;;;;;38.10;6.32;;;6.40;99.90;;;;;;4915676;29;20040;-84
2023/12/16 06:31:04;;;;;;;34.17;7.18;;;6.50;99.90;;;;;;4914725;29;20043;-81
2023/12/16 06:33:30;;;;;;;40.00;6.63;;;6.50;99.90;;;;;;4913011;29;20048;-80
2023/12/16 06:35:55;;;;;;;39.72;6.97;;;6.60;99.90;;;;;;4904906;29;20040;-77
2023/12/16 06:38:21;;;;;;;37.22;7.05;;;6.60;99.90;;;;;;4915401;29;20052;-76
2023/12/16 06:40:47;;;;;;;38.70;7.45;;;6.70;99.90;;;;;;4892797;29;20056;-78
2023/12/16 06:43:12;;;;;;;44.08;6.80;;;6.70;99.90;;;;;;4916809;29;20056;-81
2023/12/16 06:45:38;;;;;;;40.92;7.40;;;6.80;99.90;;;;;;4916858;29;20040;-87
2023/12/16 06:48:04;;;;;;;26.55;6.70;;;6.70;99.90;;;;;;4917051;29;20127;-77
2023/12/16 06:50:30;;;;;;;37.08;7.45;;;6.80;99.90;;;;;;4910098;29;20055;-88
2023/12/16 06:52:56;;;;;;;41.70;7.40;;;6.90;99.90;;;;;;4910081;29;20143;-78
2023/12/16 06:55:21;;;;;;;40.25;6.95;;;6.80;99.90;;;;;;4915871;29;20064;-76
2023/12/16 06:57:47;;;;;;;39.38;7.18;;;6.90;99.90;;;;;;4916454;29;20115;-77
2023/12/16 07:00:13;;;;;;;45.30;7.97;;;7.30;99.90;;;;;;4911825;29;20043;-83
2023/12/16 07:02:41;;;;;;;31.75;6.85;;;6.90;99.90;;;;;;4915690;29;20404;-78
2023/12/16 07:05:10;;;;;;;35.67;7.50;;;7.00;99.90;;;;;;4914852;29;20123;-77
2023/12/16 07:07:36;;;;;;;44.53;7.70;;;6.90;99.90;;;;;;4917405;29;20044;-77
2023/12/16 07:10:02;;;;;;;31.92;6.93;;;7.00;99.90;;;;;;4916519;29;20079;-79
2023/12/16 07:12:27;;;;;;;43.55;7.68;;;7.00;99.90;;;;;;4910865;29;20514;-81
2023/12/16 07:14:53;;;;;;;34.60;8.23;;;7.20;99.90;;;;;;4915482;29;20048;-80
2023/12/16 07:17:19;;;;;;;32.58;7.70;;;6.90;99.90;;;;;;4916244;29;20052;-79
2023/12/16 07:19:44;;;;;;;42.63;7.85;;;7.00;99.90;;;;;;4916783;29;20055;-83
2023/12/16 07:22:10;;;;;;;44.13;8.68;;;7.00;99.90;;;;;;4910955;29;20082;-89
2023/12/16 07:24:37;;;;;;;43.30;8.52;;;7.00;99.90;;;;;;4906735;29;20060;-77
2023/12/16 07:27:03;;;;;;;27.23;8.57;;;7.00;99.90;;;;;;4917622;29;20059;-79
2023/12/16 07:29:34;;;;;;;37.20;8.95;;;7.00;99.90;;;;;;4916177;29;20044;-76
2023/12/16 07:32:00;;;;;;;32.83;7.93;;;7.50;99.90;;;;;;4917041;29;20084;-88
2023/12/16 07:34:26;;;;;;;36.97;8.27;;;7.00;99.90;;;;;;4910480;29;20040;-91
2023/12/16 07:36:51;;;;;;;32.22;8.32;;;7.00;99.90;;;;;;4915952;29;20048;-77
2023/12/16 07:39:17;;;;;;;39.97;8.50;;;7.00;99.90;;;;;;4916003;29;20099;-77
2023/12/16 07:41:43;;;;;;;35.78;9.38;;;7.00;99.90;;;;;;4916510;29;20103;-77
2023/12/16 07:44:08;;;;;;;45.88;9.00;;;7.00;99.90;;;;;;4905552;29;20124;-76
2023/12/16 07:46:34;;;;;;;36.72;8.85;;;7.00;99.90;;;;;;4897892;29;20052;-76
2023/12/16 07:49:00;;;;;;;49.35;9.80;;;7.10;99.90;;;;;;4896999;29;20533;-77
2023/12/16 07:51:25;;;;;;;48.33;8.45;;;7.30;99.90;;;;;;4896923;29;20048;-78
2023/12/16 07:53:53;;;;;;;45.15;10.43;;;7.00;99.90;;;;;;4898503;29;20127;-77
2023/12/16 07:56:22;;;;;;;43.47;8.70;;;7.50;99.90;;;;;;4911318;29;20096;-78
2023/12/16 07:58:49;;;;;;;30.55;8.10;;;7.10;99.90;;;;;;4898636;29;20076;-78
2023/12/16 08:01:15;;;;;;;43.38;8.75;;;7.00;99.90;;;;;;4917140;29;20040;-90
2023/12/16 08:03:42;;;;;;;38.33;8.48;;;7.10;99.90;;;;;;4917075;29;20079;-77
2023/12/16 08:06:09;;;;;;;37.17;7.75;;;7.00;99.90;;;;;;4912091;29;20496;-78
2023/12/16 08:08:39;;;;;;;37.83;8.55;;;7.10;99.90;;;;;;4898335;29;20484;-76
2023/12/16 08:11:05;;;;;;;39.65;8.82;;;7.10;99.90;;;;;;4907065;29;20127;-78
2023/12/16 08:13:31;;;;;;;36.75;8.43;;;7.10;99.90;;;;;;4915090;29;20048;-78
2023/12/16 08:15:56;;;;;;;39.53;8.27;;;7.10;99.90;;;;;;4908305;29;20052;-77
2023/12/16 08:18:22;;;;;;;40.90;8.20;;;7.10;99.90;;;;;;4910498;29;20136;-79
2023/12/16 08:20:48;;;;;;;45.17;9.80;;;7.20;99.90;;;;;;4904254;29;20395;-78
2023/12/16 08:23:13;;;;;;;46.85;8.68;;;7.10;99.90;;;;;;4914297;29;20139;-80
2023/12/16 08:25:39;;;;;;;35.63;8.80;;;7.20;99.90;;;;;;4913850;29;20666;-78
2023/12/16 08:28:05;;;;;;;42.55;9.23;;;7.10;99.90;;;;;;4914691;29;20107;-78
2023/12/16 08:30:31;;;;;;;43.88;8.40;;;7.20;99.90;;;;;;4914099;29;20079;-84
2023/12/16 08:32:56;;;;;;;46.38;8.68;;;7.20;99.90;;;;;;4915026;29;20059;-78
2023/12/16 08:35:22;;;;;;;41.55;9.18;;;7.10;99.90;;;;;;4913838;29;20103;-77
2023/12/16 08:37:47;;;;;;;33.10;9.43;;;7.10;99.90;;;;;;4914247;29;20059;-77
2023/12/16 08:40:13;;;;;;;51.92;9.00;;;7.60;99.90;;;;;;4914633;29;20504;-84
2023/12/16 08:42:42;;;;;;;58.88;9.18;;;7.10;99.90;;;;;;4913382;29;20123;-79
2023/12/16 08:45:09;;;;;;;47.50;9.57;;;7.20;99.90;;;;;;4913490;29;20131;-79
2023/12/16 08:47:34;;;;;;;44.30;9.43;;;7.20;99.90;;;;;;4907475;29;20047;-78
2023/12/16 08:50:00;;;;;;;48.47;9.50;;;7.60;99.90;;;;;;4914710;29;20139;-82
2023/12/16 08:52:27;;;;;;;44.35;8.93;;;7.20;99.90;;;;;;4914593;29;20048;-76
2023/12/16 08:54:53;;;;;;;46.33;9.27;;;7.20;99.90;;;;;;4913499;29;20056;-76
2023/12/16 08:57:18;;;;;;;57.50;10.63;;;7.20;99.90;;;;;;4909714;29;20075;-78
2023/12/16 08:59:44;;;;;;;58.42;10.57;;;7.40;99.90;;;;;;4899946;29;20083;-86
2023/12/16 09:02:11;;;;;;;56.65;8.90;;;7.20;99.90;;;;;;4913585;29;20080;-77
2023/12/16 09:04:36;;;;;;;40.60;8.80;;;7.20;99.90;;;;;;4914547;29;20052;-81
2023/12/16 09:07:02;;;;;;;49.25;9.45;;;7.20;99.90;;;;;;4914747;29;20104;-81
2023/12/16 09:09:28;;;;;;;43.35;9.27;;;7.20;99.90;;;;;;4911510;29;20162;-79
2023/12/16 09:11:53;;;;;;;45.72;8.93;;;7.20;99.90;;;;;;4914506;29;20058;-89
2023/12/16 09:14:19;;;;;;;41.22;8.60;;;7.20;99.90;;;;;;4918408;29;20056;-77
2023/12/16 09:16:45;;;;;;;64.05;10.70;;;7.70;99.90;;;;;;4920888;29;20087;-77
2023/12/16 09:19:11;;;;;;;53.25;9.85;;;7.20;99.90;;;;;;4911458;29;20116;-77
2023/12/16 09:21:37;;;;;;;51.47;10.45;;;7.20;99.90;;;;;;4905696;29;20056;-77
2023/12/16 09:24:05;;;;;;;49.25;10.00;;;7.20;99.90;;;;;;4908281;29;20130;-78
2023/12/16 09:26:30;;;;;;;43.17;9.60;;;7.30;99.90;;;;;;4917342;29;20067;-78
2023/12/16 09:28:56;;;;;;;44.47;9.85;;;7.30;99.90;;;;;;4915717;29;20071;-77
2023/12/16 09:31:21;;;;;;;49.22;10.18;;;7.30;99.90;;;;;;4919989;29;20048;-91
2023/12/16 09:33:47;;;;;;;38.67;9.18;;;7.60;99.90;;;;;;4912209;29;20138;-77
2023/12/16 09:36:13;;;;;;;50.40;9.15;;;7.20;99.90;;;;;;4921216;29;20060;-93
2023/12/16 09:38:39;;;;;;;54.95;9.32;;;7.20;99.90;;;;;;4921778;29;20082;-77
2023/12/16 09:41:22;;;;;;;54.17;9.02;;;7.30;99.90;;;;;;4914510;29;20099;-91
2023/12/16 09:43:53;;;;;;;47.95;9.55;;;7.40;99.90;;;;;;4905128;29;20047;-80
2023/12/16 09:46:21;;;;;;;52.75;9.98;;;7.20;99.90;;;;;;4913823;29;20155;-80
2023/12/16 09:48:47;;;;;;;58.58;9.75;;;7.20;99.90;;;;;;4914128;29;20477;-80
2023/12/16 09:51:13;;;;;;;58.25;9.30;;;7.30;99.90;;;;;;4913853;29;20135;-77
2023/12/16 09:53:39;;;;;;;55.33;10.70;;;7.40;99.90;;;;;;4912065;29;20119;-76
2023/12/16 09:56:05;;;;;;;48.30;9.75;;;7.30;99.90;;;;;;4911722;29;20052;-77
2023/12/16 09:58:33;;;;;;;45.70;8.93;;;7.40;99.90;;;;;;4913681;29;20048;-80
2023/12/16 10:01:01;;;;;;;58.92;11.15;;;7.80;99.90;;;;;;4913762;29;20048;-76
2023/12/16 10:03:27;;;;;;;54.22;10.65;;;7.50;99.90;;;;;;4912717;29;20048;-78
2023/12/16 10:05:53;;;;;;;59.83;11.07;;;7.40;99.90;;;;;;4900315;29;20048;-79
2023/12/16 10:08:19;;;;;;;52.78;10.77;;;7.40;99.90;;;;;;4913862;29;20075;-79
2023/12/16 10:10:44;;;;;;;69.82;10.95;;;7.60;99.90;;;;;;4915972;29;20048;-77
2023/12/16 10:13:10;;;;;;;53.67;11.48;;;7.50;99.90;;;;;;4909810;29;20052;-84
2023/12/16 10:15:37;;;;;;;50.28;10.60;;;7.60;99.90;;;;;;4914287;29;20127;-78
2023/12/16 10:18:03;;;;;;;59.45;10.88;;;7.50;99.90;;;;;;4914030;29;20087;-84
2023/12/16 10:20:30;;;;;;;65.03;11.45;;;7.50;99.90;;;;;;4913360;29;20097;-75
2023/12/16 10:22:59;;;;;;;63.33;10.38;;;7.90;99.90;;;;;;4913288;29;20532;-86
2023/12/16 10:25:25;;;;;;;51.30;10.75;;;7.50;99.90;;;;;;4910873;29;20064;-77
2023/12/16 10:27:59;;;;;;;60.30;11.75;;;7.60;99.90;;;;;;4913606;29;20143;-76
2023/12/16 10:30:25;;;;;;;53.95;12.20;;;7.50;99.90;;;;;;4909571;29;20048;-78
2023/12/16 10:32:51;;;;;;;67.03;13.18;;;8.00;99.90;;;;;;4912203;29;20052;-83
2023/12/16 10:35:17;;;;;;;59.15;11.43;;;7.60;99.90;;;;;;4913563;29;20067;-77
2023/12/16 10:37:50;;;;;;;60.35;11.60;;;7.70;99.90;;;;;;4916359;29;20051;-81
2023/12/16 10:40:17;;;;;;;62.10;12.32;;;7.70;99.90;;;;;;4892452;29;20064;-79
2023/12/16 10:42:43;;;;;;;49.90;11.20;;;7.60;99.90;;;;;;4917286;29;20044;-78
2023/12/16 10:45:11;;;;;;;47.40;11.52;;;7.80;99.90;;;;;;4915421;29;20052;-77
2023/12/16 10:47:37;;;;;;;59.03;12.52;;;7.80;99.90;;;;;;4916424;29;20048;-77
2023/12/16 10:50:04;;;;;;;49.05;11.63;;;7.70;99.90;;;;;;4914775;29;20048;-82
2023/12/16 10:52:52;;;;;;;55.58;12.00;;;7.80;99.90;;;;;;4914933;29;20044;-78
2023/12/16 10:55:44;;;;;;;61.92;11.55;;;7.70;99.90;;;;;;4916927;29;20392;-84
2023/12/16 10:58:46;;;;;;;37.60;11.27;;;7.80;99.90;;;;;;4902492;29;20119;-82
2023/12/16 11:01:20;;;;;;;37.67;10.43;;;7.80;99.90;;;;;;4921341;29;20138;-76
2023/12/16 11:03:50;;;;;;;52.70;13.10;;;7.70;99.90;;;;;;4931362;29;20818;-77
2023/12/16 11:06:33;;;;;;;46.25;11.65;;;7.70;99.90;;;;;;4932803;29;20458;-77
2023/12/16 11:09:00;;;;;;;45.58;11.63;;;7.70;99.90;;;;;;4917339;29;20054;-79
2023/12/16 11:11:27;;;;;;;34.63;11.25;;;7.70;99.90;;;;;;4931015;29;20139;-77
2023/12/16 11:13:55;;;;;;;44.17;12.23;;;8.00;99.90;;;;;;4907344;29;20563;-77
2023/12/16 11:16:32;;;;;;;32.95;11.82;;;7.80;99.90;;;;;;4917236;29;20535;-80
2023/12/16 11:18:59;;;;;;;38.92;11.38;;;7.70;99.90;;;;;;4916799;29;20558;-79
2023/12/16 11:21:27;;;;;;;42.17;12.32;;;7.70;99.90;;;;;;4933130;29;20224;-78
2023/12/16 11:23:54;;;;;;;37.13;10.38;;;8.30;99.90;;;;;;4930689;29;20091;-78
2023/12/16 11:26:19;;;;;;;33.63;10.65;;;8.30;99.90;;;;;;4921515;29;20220;-78
2023/12/16 11:28:52;;;;;;;36.15;10.25;;;7.80;99.90;;;;;;4920282;29;20048;-82
2023/12/16 11:31:18;;;;;;;32.83;9.75;;;7.80;99.90;;;;;;4932852;29;20079;-79
2023/12/16 11:33:45;;;;;;;35.45;9.05;;;7.90;99.90;;;;;;4930760;29;20527;-76
2023/12/16 11:36:12;;;;;;;31.77;9.65;;;8.00;99.90;;;;;;4916163;29;20048;-77
2023/12/16 11:38:42;;;;;;;36.40;10.00;;;8.00;99.90;;;;;;4921974;29;20468;-77
2023/12/16 11:41:09;;;;;;;30.60;9.20;;;7.90;99.90;;;;;;4916179;29;20063;-78
2023/12/16 11:43:51;;;;;;;23.05;7.07;;;7.90;99.90;;;;;;4915060;29;20039;-76
2023/12/16 11:46:33;;;;;;;17.08;6.75;;;8.00;99.90;;;;;;4914083;29;20067;-80
2023/12/16 11:49:02;;;;;;;20.13;6.55;;;8.00;99.90;;;;;;4914508;29;20106;-85
2023/12/16 11:51:29;;;;;;;12.05;5.40;;;8.10;99.90;;;;;;4913625;29;20059;-79
2023/12/16 11:53:57;;;;;;;19.45;5.65;;;8.20;99.90;;;;;;4915627;29;20063;-78
2023/12/16 11:56:23;;;;;;;17.90;6.13;;;8.70;99.90;;;;;;4915663;29;20500;-78
2023/12/16 11:58:49;;;;;;;18.13;5.68;;;8.40;99.90;;;;;;4914354;29;20059;-83
2023/12/16 12:01:16;;;;;;;15.43;5.40;;;8.40;99.90;;;;;;4912071;29;20111;-78
2023/12/16 12:03:42;;;;;;;14.00;5.60;;;8.30;99.90;;;;;;4912389;29;20139;-86
2023/12/16 12:06:09;;;;;;;10.35;5.03;;;8.30;99.90;;;;;;4913647;29;20144;-78
2023/12/16 12:08:35;;;;;;;14.25;4.70;;;8.80;99.90;;;;;;4911872;29;20051;-84
2023/12/16 12:11:01;;;;;;;11.13;5.22;;;8.60;99.90;;;;;;4915212;29;20135;-79
2023/12/16 12:13:26;;;;;;;14.00;5.85;;;8.50;99.90;;;;;;4914223;29;20056;-79
2023/12/16 12:15:52;;;;;;;14.88;5.60;;;8.30;99.90;;;;;;4914056;29;20044;-78
2023/12/16 12:18:18;;;;;;;14.98;4.80;;;8.50;99.90;;;;;;4914160;29;20103;-80
2023/12/16 12:20:44;;;;;;;13.90;6.57;;;8.40;99.90;;;;;;4900362;29;20057;-83
2023/12/16 12:23:11;;;;;;;14.30;6.20;;;8.50;99.90;;;;;;4912734;29;20496;-77
2023/12/16 12:25:37;;;;;;;17.10;6.07;;;8.50;99.90;;;;;;4908629;29;20139;-78
2023/12/16 12:28:09;;;;;;;13.60;6.00;;;8.80;99.90;;;;;;4915010;29;20470;-87
2023/12/16 12:30:34;;;;;;;18.42;6.68;;;8.50;99.90;;;;;;4910914;29;20054;-79
2023/12/16 12:33:00;;;;;;;15.60;6.13;;;8.50;99.90;;;;;;4913827;29;20044;-81
2023/12/16 12:35:26;;;;;;;13.40;6.40;;;8.90;99.90;;;;;;4914930;29;20480;-80
2023/12/16 12:37:51;;;;;;;13.00;6.15;;;8.50;99.90;;;;;;4914414;29;20408;-77
2023/12/16 12:40:20;;;;;;;13.50;6.10;;;8.60;99.90;;;;;;4912501;29;20962;-77
2023/12/16 12:42:57;;;;;;;17.33;6.13;;;8.50;99.90;;;;;;4907484;29;20539;-87